Barbados Meteorological Services
Auto gathered TAF list
Powered by Apparatus software
For Flight WS2513
Contact Number 1-(246)-535-0021/2/3/4/5/6
WEB: http://www.barbadosweather.org

**********************************************

2017/11/21 18:42
TAF TAF TXKF 211732Z 2118/2218 09014KT 9999 SCT040
BECMG 2208/2212 13020KT FEW020 BKN040


**********************************************
2017/11/21 12:07
TAF TLPL 211100Z 2112/2212 09016KT 9999 SCT025
TEMPO 2200/2212 SHRA


**********************************************
2017/11/21 18:42
TAF TJSJ 211739Z 2118/2218 07014KT P6SM VCSH SCT028 SCT040
FM212300 11005KT P6SM FEW030 SCT070
FM220600 13002KT P6SM FEW025 SCT035
FM221400 07011KT P6SM SCT040


**********************************************
2017/11/21 18:10
TAF TFFR 211700Z 2118/2218 10010KT 9999 SCT030


**********************************************
2017/11/21 18:54
TAF TBPB 211710Z 2118/2218 09018KT 9999 SCT018= TAF TVSA 211710Z 2118/2218 08011KT 9999 SCT018


**********************************************
2017/11/21 18:45
TAF TAF TAPA 211745Z 2118/2218 10008KT 9999 SCT020 PROB30
TEMPO 2214/2218 SHRA


**********************************************
2017/11/21 18:28
TAF KPHL 211725Z 2118/2224 22015G23KT P6SM SKC
FM212000 22012G19KT P6SM SKC
FM212300 20008KT P6SM SKC
FM220300 20007KT P6SM BKN050
FM220700 VRB04KT P6SM SCT025 OVC050 PROB30 2207/2212 5SM -RA OVC025
FM221200 29005KT P6SM SCT025 BKN050
FM221500 32011G20KT P6SM SCT050 BKN100
FM221900 32015G25KT P6SM BKN250


**********************************************
2017/11/21 18:24
TAF KORF 211721Z 2118/2218 22010KT P6SM SCT120 BKN250
FM220400 16005KT P6SM VCSH OVC060
FM220600 18006KT 5SM -SHRA BR OVC040
FM221000 25006KT 3SM -SHRA BR OVC020
FM221300 31008KT P6SM BKN035
FM221600 34012KT P6SM SCT080


**********************************************
2017/11/21 18:42
TAF KJFK 211741Z 2118/2224 21016G24KT P6SM FEW150 SCT250
FM212200 20015KT P6SM SCT250
FM220200 21011KT P6SM SCT040 SCT250
FM220600 21008KT P6SM BKN040
FM220800 21007KT 6SM -RA OVC035
FM221100 VRB05KT 5SM -RA OVC015
FM221400 31010KT P6SM VCSH SCT020 BKN040
FM221600 31013G20KT P6SM SCT025 BKN070
FM221800 31016G22KT P6SM SCT040 SCT250


**********************************************
2017/11/21 18:45
TAF
AMD KIAD 211742Z 2118/2224 20013G20KT P6SM BKN250
FM220000 20010KT P6SM FEW250
FM220700 23006KT 4SM -SHRA BR BKN050
FM220900 25005KT 4SM -SHRA BR BKN015
FM221200 32008KT P6SM BKN035
FM221600 33015G22KT P6SM FEW250
FM222300 33009KT P6SM FEW250


**********************************************
2017/11/21 18:42
TAF KEWR 211741Z 2118/2224 22014G22KT P6SM SCT250
FM212200 22011KT P6SM SCT250
FM220200 21008KT P6SM SCT045 SCT250
FM220600 20005KT P6SM BKN045
FM220900 22004KT 6SM -RA OVC040
FM221100 VRB05KT 5SM -RA OVC025
FM221400 31009KT P6SM VCSH SCT025 BKN045
FM221600 32013G20KT P6SM SCT030 BKN080
FM221800 32016G22KT P6SM SCT040 SCT250


**********************************************
2017/11/21 18:31
TAF KCHS 211729Z 2118/2218 08006KT P6SM FEW050 BKN120
FM212000 09008KT P6SM VCSH SCT020 OVC040
TEMPO 2121/2124 5SM -RA BR OVC030
FM220200 VRB03KT P6SM OVC035
FM220600 36003KT 2SM BR OVC007
FM221500 01005KT P6SM OVC015


**********************************************
2017/11/21 18:31
TAF KBOS 211726Z 2118/2224 22022G33KT P6SM FEW250
FM212200 22012G25KT P6SM FEW250
FM220400 20005KT P6SM SCT100 BKN250
FM221000 18004KT 5SM -RA OVC015
FM221300 VRB03KT 3SM -RA BR OVC008
FM222000 32008KT P6SM BKN045


**********************************************
2017/11/21 18:42
TAF CYYZ 211739Z 2118/2224 23020G35KT P6SM SCT160 BKN240
FM212100 24018G30KT P6SM BKN030 OVC160
FM220000 25015G25KT P6SM -SHRA BKN025 OVC060
TEMPO 2200/2205 5SM -SHRA BR OVC020
FM220500 28012G22KT P6SM BKN030 OVC150
FM220800 29010G20KT P6SM SCT030
FM221500 31012G22KT P6SM BKN030
RMK NXT FCST BY 212100Z


**********************************************
2017/11/21 18:42
TAF CYUL 211738Z 2118/2218 17010KT P6SM BKN240
BECMG 2118/2119 18015G25KT
FM212300 21012G22KT P6SM BKN030 OVC200
FM220500 21010KT P6SM -RA BKN025 OVC050
FM220900 23012KT 5SM -RA BR SCT008 OVC015
FM221400 27012G22KT P6SM BKN015
RMK NXT FCST BY 212100Z


**********************************************
2017/11/21 18:42
TAF CYOW 211738Z 2118/2218 19012G22KT P6SM FEW150 BKN240
FM212200 21015G25KT P6SM BKN030 OVC160
FM220100 22012G22KT P6SM -SHRA BKN025 OVC060
FM220400 22010KT 5SM -RA BR BKN008 OVC015
FM221000 30010G20KT 21/2SM -SHSN SCT008 OVC015
FM221400 31015G25KT P6SM BKN015
RMK NXT FCST BY 212100Z


**********************************************
2017/11/21 18:42
TAF CYMX 211738Z 2118/2218 06005KT P6SM BKN220
BECMG 2118/2119 21010G20KT
FM212300 22007KT P6SM BKN040 OVC220
FM220400 23007KT P6SM -RA BKN020 OVC070
FM221100 27005KT 4SM -RASN BKN008 OVC020
FM221500 29008KT P6SM BKN015 OVC050
FM221700 28010KT P6SM SCT020
RMK NXT FCST BY 220000Z


**********************************************